Terminal Aerodrome Forecast
Issued by NWS

Home | Current Version | Previous Version | Text Only | Print | Product List | Glossary On
Versions: 1 2 3 4 5 6 7 8 9 10 11 12 13
000
FTUS42 TJSJ 210523
TAFKPK
TAF
TKPK 210523Z 2106/2206 VRB04KT P6SM FEW020
     FM211300 06008KT P6SM FEW020
     FM212300 VRB03KT P6SM FEW020
      AMD NOT SKED TIL 211100=

USA.gov is the U.S. government's official web portal to all federal, state and local government web resources and services.